createdAt,value
2018-07-09T00:01:24.761Z,100656.55
2018-07-09T00:03:54.496Z,100658.45
2018-07-09T00:06:24.259Z,100656.27
2018-07-09T00:08:53.931Z,100658.87
2018-07-09T00:11:23.616Z,100653.34
2018-07-09T00:13:53.720Z,100648.88
2018-07-09T00:16:23.398Z,100652.58
2018-07-09T00:18:53.332Z,100661.72
2018-07-09T00:21:22.994Z,100661.55
2018-07-09T00:23:52.804Z,100661.56
2018-07-09T00:26:22.562Z,100664.40
2018-07-09T00:28:52.822Z,100662.73
2018-07-09T00:31:22.523Z,100660.04
2018-07-09T00:33:52.248Z,100657.19
2018-07-09T00:36:21.921Z,100661.38
2018-07-09T00:38:51.769Z,100657.11
2018-07-09T00:41:22.636Z,100657.59
2018-07-09T00:43:52.666Z,100651.02
2018-07-09T00:46:22.391Z,100658.09
2018-07-09T00:48:52.148Z,100656.76
2018-07-09T00:51:21.930Z,100660.03
2018-07-09T00:53:51.651Z,100659.02
2018-07-09T00:56:21.387Z,100658.69
2018-07-09T00:58:51.265Z,100660.72
2018-07-09T01:01:21.008Z,100660.36
2018-07-09T01:03:50.739Z,100654.64
2018-07-09T01:06:20.663Z,100654.48
2018-07-09T01:08:50.359Z,100659.88
2018-07-09T01:11:31.169Z,100659.98
2018-07-09T01:14:00.864Z,100658.47
2018-07-09T01:16:30.536Z,100655.63
2018-07-09T01:19:00.300Z,100652.95
2018-07-09T01:21:30.004Z,100655.59
2018-07-09T01:23:59.779Z,100657.28
2018-07-09T01:26:29.976Z,100653.60
2018-07-09T01:29:00.113Z,100656.18
2018-07-09T01:31:29.875Z,100650.56
2018-07-09T01:33:59.561Z,100650.20
2018-07-09T01:36:29.273Z,100647.86
2018-07-09T01:38:58.980Z,100637.75
2018-07-09T01:41:28.687Z,100640.66
2018-07-09T01:43:58.412Z,100639.97
2018-07-09T01:46:28.103Z,100639.91
2018-07-09T01:48:57.768Z,100632.86
2018-07-09T01:51:27.488Z,100638.68
2018-07-09T01:53:57.177Z,100636.61
2018-07-09T01:56:26.952Z,100636.19
2018-07-09T01:58:56.840Z,100631.93
2018-07-09T02:01:26.544Z,100632.02
2018-07-09T02:03:56.263Z,100629.52
2018-07-09T02:06:25.941Z,100634.25
2018-07-09T02:08:55.624Z,100637.11
2018-07-09T02:11:25.325Z,100628.69
2018-07-09T02:13:54.987Z,100631.03
2018-07-09T02:16:24.722Z,100633.64
2018-07-09T02:18:54.459Z,100633.28
2018-07-09T02:21:24.130Z,100630.59
2018-07-09T02:23:53.793Z,100631.28
2018-07-09T02:26:23.579Z,100621.98
2018-07-09T02:28:53.290Z,100625.11
2018-07-09T02:31:22.985Z,100625.95
2018-07-09T02:33:52.747Z,100626.17
2018-07-09T02:36:22.432Z,100629.69
2018-07-09T02:38:52.433Z,100628.86
2018-07-09T02:41:22.118Z,100629.69
2018-07-09T02:43:51.780Z,100622.97
2018-07-09T02:46:21.549Z,100625.00
2018-07-09T02:48:52.323Z,100616.92
2018-07-09T02:51:22.079Z,100617.09
2018-07-09T02:53:51.748Z,100621.48
2018-07-09T02:56:21.439Z,100615.23
2018-07-09T02:58:51.212Z,100620.45
2018-07-09T03:01:20.902Z,100619.27
2018-07-09T03:03:50.653Z,100622.62
2018-07-09T03:06:20.373Z,100616.41
2018-07-09T03:08:50.113Z,100614.48
2018-07-09T03:11:19.804Z,100622.34
2018-07-09T03:13:50.272Z,100630.14
2018-07-09T03:16:19.983Z,100632.64
2018-07-09T03:18:49.650Z,100639.70
2018-07-09T03:21:19.437Z,100645.23
2018-07-09T03:23:49.130Z,100646.47
2018-07-09T03:26:18.845Z,100648.16
2018-07-09T03:28:48.821Z,100646.82
2018-07-09T03:31:18.509Z,100645.47
2018-07-09T03:33:48.531Z,100646.66
2018-07-09T03:36:18.234Z,100639.92
2018-07-09T03:38:47.904Z,100640.75
2018-07-09T03:41:17.666Z,100637.92
2018-07-09T03:43:47.420Z,100633.55
2018-07-09T03:46:17.173Z,100633.88
2018-07-09T03:48:46.854Z,100637.41
2018-07-09T03:51:16.533Z,100640.97
2018-07-09T03:53:46.294Z,100643.84
2018-07-09T03:56:16.005Z,100643.52
2018-07-09T03:58:45.651Z,100647.05
2018-07-09T04:01:15.393Z,100644.06
2018-07-09T04:03:45.103Z,100637.16
2018-07-09T04:06:14.780Z,100640.86
2018-07-09T04:08:44.539Z,100645.72
2018-07-09T04:11:14.231Z,100649.94
2018-07-09T04:13:43.917Z,100646.06
2018-07-09T04:16:13.807Z,100644.55
2018-07-09T04:18:43.488Z,100637.66
2018-07-09T04:21:13.236Z,100638.80
2018-07-09T04:23:42.930Z,100646.87
2018-07-09T04:26:12.623Z,100647.59
2018-07-09T04:28:42.342Z,100644.23
2018-07-09T04:31:11.988Z,100647.91
2018-07-09T04:33:41.652Z,100643.55
2018-07-09T04:36:11.353Z,100644.03
2018-07-09T04:38:41.058Z,100649.75
2018-07-09T04:41:10.724Z,100654.63
2018-07-09T04:43:40.505Z,100647.90
2018-07-09T04:46:10.207Z,100651.08
2018-07-09T04:48:39.901Z,100647.56
2018-07-09T04:51:09.789Z,100646.69
2018-07-09T04:53:39.456Z,100636.05
2018-07-09T04:56:09.224Z,100638.05
2018-07-09T04:58:38.948Z,100638.73
2018-07-09T05:01:08.636Z,100648.17
2018-07-09T05:03:38.354Z,100647.48
2018-07-09T05:06:08.058Z,100644.11
2018-07-09T05:08:37.773Z,100649.12
2018-07-09T05:11:07.634Z,100650.48
2018-07-09T05:13:37.337Z,100652.69
2018-07-09T05:16:07.184Z,100655.00
2018-07-09T05:18:36.904Z,100648.77
2018-07-09T05:21:06.624Z,100650.94
2018-07-09T05:23:36.343Z,100650.09
2018-07-09T05:26:06.107Z,100641.16
2018-07-09T05:28:35.816Z,100634.92
2018-07-09T05:31:05.560Z,100639.14
2018-07-09T05:33:35.262Z,100633.41
2018-07-09T05:36:04.917Z,100638.62
2018-07-09T05:38:34.776Z,100637.28
2018-07-09T05:41:04.460Z,100633.39
2018-07-09T05:43:34.276Z,100635.86
2018-07-09T05:46:04.587Z,100639.31
2018-07-09T05:48:34.424Z,100632.11
2018-07-09T05:51:04.104Z,100626.73
2018-07-09T05:53:33.786Z,100625.56
2018-07-09T05:56:03.550Z,100619.35
2018-07-09T05:58:33.238Z,100614.48
2018-07-09T06:01:02.944Z,100618.41
2018-07-09T06:03:32.667Z,100617.91
2018-07-09T06:06:02.365Z,100614.09
2018-07-09T06:08:32.094Z,100616.84
2018-07-09T06:11:01.824Z,100614.51
2018-07-09T06:13:31.529Z,100617.05
2018-07-09T06:16:01.307Z,100613.22
2018-07-09T06:18:30.994Z,100616.05
2018-07-09T06:21:00.681Z,100619.20
2018-07-09T06:23:30.444Z,100619.00
2018-07-09T06:26:00.146Z,100622.48
2018-07-09T06:28:29.835Z,100629.09
2018-07-09T06:30:59.692Z,100623.16
2018-07-09T06:33:29.353Z,100627.21
2018-07-09T06:35:59.078Z,100624.89
2018-07-09T06:38:28.764Z,100632.45
2018-07-09T06:40:58.459Z,100629.80
2018-07-09T06:43:28.200Z,100628.37
2018-07-09T06:45:57.949Z,100626.95
2018-07-09T06:48:27.720Z,100624.94
2018-07-09T06:50:57.676Z,100624.34
2018-07-09T06:53:33.779Z,100625.97
2018-07-09T06:56:03.653Z,100618.92
2018-07-09T06:58:33.296Z,100623.11
2018-07-09T07:01:02.976Z,100619.37
2018-07-09T07:03:32.770Z,100619.13
2018-07-09T07:06:02.453Z,100621.34
2018-07-09T07:08:32.212Z,100614.48
2018-07-09T07:11:01.914Z,100619.45
2018-07-09T07:13:31.642Z,100615.54
2018-07-09T07:16:01.372Z,100609.53
2018-07-09T07:18:31.077Z,100617.38
2018-07-09T07:21:00.746Z,100616.37
2018-07-09T07:23:30.492Z,100619.97
2018-07-09T07:26:00.173Z,100614.98
2018-07-09T07:28:29.850Z,100622.23
2018-07-09T07:30:59.616Z,100610.65
2018-07-09T07:33:29.302Z,100616.02
2018-07-09T07:35:59.077Z,100611.31
2018-07-09T07:38:28.777Z,100609.25
2018-07-09T07:40:58.461Z,100602.45
2018-07-09T07:43:28.212Z,100608.49
2018-07-09T07:45:57.892Z,100602.36
2018-07-09T07:48:27.616Z,100600.40
2018-07-09T07:50:57.348Z,100597.17
2018-07-09T07:53:27.013Z,100588.51
2018-07-09T07:55:56.711Z,100586.92
2018-07-09T07:58:26.459Z,100592.14
2018-07-09T08:00:56.215Z,100576.23
2018-07-09T08:03:25.957Z,100571.80
2018-07-09T08:05:55.773Z,100565.39
2018-07-09T08:08:25.462Z,100564.41
2018-07-09T08:10:55.306Z,100566.23
2018-07-09T08:13:29.006Z,100563.52
2018-07-09T08:15:54.753Z,100565.14
2018-07-09T08:18:24.538Z,100564.30
2018-07-09T08:20:54.246Z,100557.39
2018-07-09T08:23:24.000Z,100558.63
2018-07-09T08:25:53.776Z,100555.24
2018-07-09T08:28:23.553Z,100559.03
2018-07-09T08:30:53.317Z,100553.47
2018-07-09T08:33:23.045Z,100556.55
2018-07-09T08:35:52.698Z,100550.72
2018-07-09T08:38:22.437Z,100547.86
2018-07-09T08:40:52.167Z,100546.64
2018-07-09T08:43:21.969Z,100547.52
2018-07-09T08:45:51.681Z,100553.55
2018-07-09T08:48:21.381Z,100547.44
2018-07-09T08:50:51.120Z,100538.31
2018-07-09T08:53:20.808Z,100538.93
2018-07-09T08:55:51.431Z,100532.77
2018-07-09T08:58:21.166Z,100531.72
2018-07-09T09:00:50.893Z,100525.84
2018-07-09T09:03:20.623Z,100523.03
2018-07-09T09:05:50.289Z,100516.33
2018-07-09T09:08:19.975Z,100521.41
2018-07-09T09:10:49.717Z,100515.63
2018-07-09T09:13:19.379Z,100524.48
2018-07-09T09:15:49.130Z,100526.41
2018-07-09T09:18:18.869Z,100526.77
2018-07-09T09:20:48.595Z,100529.38
2018-07-09T09:23:18.314Z,100529.93
2018-07-09T09:25:48.005Z,100528.13
2018-07-09T09:28:17.720Z,100529.39
2018-07-09T09:30:47.445Z,100530.25
2018-07-09T09:33:17.148Z,100529.19
2018-07-09T09:35:46.861Z,100525.91
2018-07-09T09:38:16.580Z,100520.55
2018-07-09T09:40:46.312Z,100527.38
2018-07-09T09:43:15.997Z,100522.05
2018-07-09T09:45:45.716Z,100529.09
2018-07-09T09:48:15.511Z,100526.45
2018-07-09T09:50:45.214Z,100522.05
2018-07-09T09:53:14.881Z,100522.05
2018-07-09T09:55:44.616Z,100521.60
2018-07-09T09:58:14.298Z,100521.94
2018-07-09T10:00:50.101Z,100524.53
2018-07-09T10:03:19.796Z,100522.97
2018-07-09T10:05:49.863Z,100512.36
2018-07-09T10:08:19.589Z,100507.34
2018-07-09T10:10:49.289Z,100510.75
2018-07-09T10:13:18.980Z,100507.44
2018-07-09T10:15:48.729Z,100512.66
2018-07-09T10:18:18.428Z,100520.86
2018-07-09T10:20:48.136Z,100519.73
2018-07-09T10:23:17.927Z,100527.38
2018-07-09T10:25:47.561Z,100521.06
2018-07-09T10:28:17.278Z,100519.72
2018-07-09T10:30:47.023Z,100519.73
2018-07-09T10:33:16.698Z,100522.02
2018-07-09T10:35:46.394Z,100526.30
2018-07-09T10:38:16.076Z,100526.23
2018-07-09T10:40:45.748Z,100526.38
2018-07-09T10:43:15.498Z,100523.19
2018-07-09T10:45:45.251Z,100516.95
2018-07-09T10:48:14.916Z,100511.70
2018-07-09T10:50:44.658Z,100509.55
2018-07-09T10:53:14.364Z,100515.16
2018-07-09T10:55:44.082Z,100516.41
2018-07-09T10:58:13.818Z,100509.88
2018-07-09T11:00:43.556Z,100508.09
2018-07-09T11:03:13.275Z,100501.02
2018-07-09T11:05:42.959Z,100498.41
2018-07-09T11:08:12.703Z,100490.92
2018-07-09T11:10:42.399Z,100486.42
2018-07-09T11:13:12.178Z,100489.83
2018-07-09T11:15:41.837Z,100489.22
2018-07-09T11:18:11.499Z,100473.74
2018-07-09T11:20:41.203Z,100472.89
2018-07-09T11:23:10.872Z,100474.11
2018-07-09T11:25:40.572Z,100467.36
2018-07-09T11:28:10.297Z,100474.86
2018-07-09T11:30:40.484Z,100468.44
2018-07-09T11:33:10.167Z,100458.86
2018-07-09T11:35:39.840Z,100460.31
2018-07-09T11:38:09.552Z,100457.48
2018-07-09T11:40:39.277Z,100455.17
2018-07-09T11:43:08.974Z,100453.00
2018-07-09T11:45:38.692Z,100455.34
2018-07-09T11:48:08.452Z,100456.61
2018-07-09T11:50:38.138Z,100449.84
2018-07-09T11:53:07.912Z,100452.25
2018-07-09T11:55:37.629Z,100450.77
2018-07-09T11:58:07.312Z,100447.23
2018-07-09T12:00:37.093Z,100446.41
2018-07-09T12:03:06.859Z,100441.68
2018-07-09T12:05:36.553Z,100433.23
2018-07-09T12:08:06.355Z,100445.35
2018-07-09T12:10:36.040Z,100444.00
2018-07-09T12:13:05.804Z,100445.58
2018-07-09T12:15:35.518Z,100454.67
2018-07-09T12:18:05.204Z,100444.78
2018-07-09T12:20:34.928Z,100450.61
2018-07-09T12:23:04.636Z,100454.03
2018-07-09T12:25:34.349Z,100454.57
2018-07-09T12:28:03.992Z,100445.92
2018-07-09T12:30:33.673Z,100442.95
2018-07-09T12:33:03.428Z,100449.30
2018-07-09T12:35:33.116Z,100453.17
2018-07-09T12:38:02.752Z,100450.49
2018-07-09T12:40:32.465Z,100446.42
2018-07-09T12:43:02.128Z,100454.00
2018-07-09T12:45:31.772Z,100449.79
2018-07-09T12:48:01.505Z,100440.42
2018-07-09T12:50:31.243Z,100436.53
2018-07-09T12:53:00.923Z,100437.48
2018-07-09T12:55:30.648Z,100444.76
2018-07-09T12:58:00.356Z,100448.95
2018-07-09T13:00:30.127Z,100448.36
2018-07-09T13:02:59.823Z,100444.74
2018-07-09T13:05:29.499Z,100441.08
2018-07-09T13:07:59.219Z,100432.75
2018-07-09T13:10:28.999Z,100434.31
2018-07-09T13:12:58.659Z,100436.87
2018-07-09T13:15:28.424Z,100435.36
2018-07-09T13:17:58.079Z,100432.34
2018-07-09T13:20:27.784Z,100426.87
2018-07-09T13:22:57.520Z,100419.81
2018-07-09T13:25:27.331Z,100414.23
2018-07-09T13:27:57.404Z,100409.88
2018-07-09T13:30:27.171Z,100398.92
2018-07-09T13:32:56.867Z,100401.14
2018-07-09T13:35:26.634Z,100404.58
2018-07-09T13:37:56.374Z,100395.92
2018-07-09T13:40:26.159Z,100393.70
2018-07-09T13:42:55.820Z,100391.55
2018-07-09T13:45:25.744Z,100387.37
2018-07-09T13:47:55.524Z,100381.39
2018-07-09T13:50:25.213Z,100378.55
2018-07-09T13:52:54.952Z,100381.59
2018-07-09T13:55:24.698Z,100366.34
2018-07-09T13:57:54.616Z,100369.67
2018-07-09T14:00:24.344Z,100374.80
2018-07-09T14:02:53.999Z,100357.56
2018-07-09T14:05:23.705Z,100355.20
2018-07-09T14:07:53.433Z,100352.45
2018-07-09T14:10:23.237Z,100349.13
2018-07-09T14:12:52.792Z,100351.42
2018-07-09T14:15:22.520Z,100352.17
2018-07-09T14:17:52.208Z,100349.15
2018-07-09T14:20:47.620Z,100340.75
2018-07-09T14:23:18.555Z,100343.53
2018-07-09T14:25:48.255Z,100346.03
2018-07-09T14:28:17.965Z,100332.97
2018-07-09T14:30:47.708Z,100335.73
2018-07-09T14:33:17.411Z,100334.16
2018-07-09T14:35:47.252Z,100335.75
2018-07-09T14:38:16.904Z,100331.42
2018-07-09T14:40:46.604Z,100347.86
2018-07-09T14:43:16.343Z,100326.03
2018-07-09T14:45:46.021Z,100327.06
2018-07-09T14:48:15.693Z,100324.23
2018-07-09T14:50:45.365Z,100325.86
2018-07-09T14:53:15.022Z,100320.17
2018-07-09T14:55:44.690Z,100316.23
2018-07-09T14:58:14.423Z,100316.74
2018-07-09T15:00:44.072Z,100317.86
2018-07-09T15:03:13.739Z,100318.41
2018-07-09T15:05:43.441Z,100308.73
2018-07-09T15:08:13.105Z,100313.92
2018-07-09T15:10:42.775Z,100299.11
2018-07-09T15:13:12.509Z,100314.58
2018-07-09T15:15:42.203Z,100305.59
2018-07-09T15:18:11.921Z,100296.40
2018-07-09T15:20:41.672Z,100295.63
2018-07-09T15:23:11.332Z,100289.72
2018-07-09T15:25:41.001Z,100284.41
2018-07-09T15:28:10.997Z,100285.72
2018-07-09T15:30:40.677Z,100279.76
2018-07-09T15:33:10.422Z,100275.14
2018-07-09T15:35:40.117Z,100281.06
2018-07-09T15:38:09.866Z,100275.75
2018-07-09T15:40:39.625Z,100280.61
2018-07-09T15:43:09.272Z,100282.12
2018-07-09T15:45:39.031Z,100272.77
2018-07-09T15:48:08.719Z,100274.37
2018-07-09T15:50:38.436Z,100272.31
2018-07-09T15:53:08.100Z,100264.55
2018-07-09T15:55:37.754Z,100266.75
2018-07-09T15:58:07.465Z,100254.53
2018-07-09T16:00:37.136Z,100254.13
2018-07-09T16:03:06.780Z,100257.80
2018-07-09T16:05:36.504Z,100259.62
2018-07-09T16:08:06.164Z,100259.95
2018-07-09T16:10:35.827Z,100259.09
2018-07-09T16:13:05.549Z,100253.46
2018-07-09T16:15:35.541Z,100247.43
2018-07-09T16:18:05.527Z,100253.02
2018-07-09T16:20:35.188Z,100247.05
2018-07-09T16:23:04.873Z,100248.98
2018-07-09T16:25:34.633Z,100250.53
2018-07-09T16:28:04.322Z,100241.41
2018-07-09T16:30:33.999Z,100255.80
2018-07-09T16:33:03.732Z,100254.37
2018-07-09T16:35:33.420Z,100245.77
2018-07-09T16:38:03.379Z,100244.47
2018-07-09T16:40:33.148Z,100247.24
2018-07-09T16:43:02.840Z,100243.03
2018-07-09T16:45:32.570Z,100245.94
2018-07-09T16:48:02.247Z,100246.15
2018-07-09T16:50:31.974Z,100244.56
2018-07-09T16:53:01.676Z,100251.78
2018-07-09T16:55:31.385Z,100249.05
2018-07-09T16:58:01.048Z,100246.33
2018-07-09T17:00:30.829Z,100239.80
2018-07-09T17:03:00.636Z,100243.48
2018-07-09T17:05:30.425Z,100243.00
2018-07-09T17:08:00.177Z,100244.78
2018-07-09T17:10:29.851Z,100242.86
2018-07-09T17:12:59.565Z,100246.47
2018-07-09T17:15:29.312Z,100245.58
2018-07-09T17:17:58.999Z,100244.38
2018-07-09T17:20:28.712Z,100243.86
2018-07-09T17:22:58.445Z,100242.96
2018-07-09T17:25:28.101Z,100238.23
2018-07-09T17:27:57.753Z,100237.19
2018-07-09T17:30:27.508Z,100240.23
2018-07-09T17:32:57.180Z,100235.45
2018-07-09T17:35:26.916Z,100234.63
2018-07-09T17:37:56.636Z,100238.63
2018-07-09T17:40:26.352Z,100235.29
2018-07-09T17:42:56.177Z,100237.63
2018-07-09T17:45:25.876Z,100239.06
2018-07-09T17:47:55.582Z,100229.59
2018-07-09T17:50:25.409Z,100236.85
2018-07-09T17:52:55.138Z,100239.18
2018-07-09T17:55:25.012Z,100240.18
2018-07-09T17:57:54.751Z,100237.85
2018-07-09T18:00:24.491Z,100235.22
2018-07-09T18:02:54.191Z,100229.23
2018-07-09T18:05:24.178Z,100236.89
2018-07-09T18:07:54.010Z,100229.02
2018-07-09T18:10:24.129Z,100232.55
2018-07-09T18:12:53.756Z,100236.39
2018-07-09T18:15:23.788Z,100241.01
2018-07-09T18:17:53.876Z,100226.55
2018-07-09T18:20:23.595Z,100238.31
2018-07-09T18:25:57.015Z,100231.34
2018-07-09T18:28:26.677Z,100224.63
2018-07-09T18:30:56.395Z,100231.31
2018-07-09T18:33:26.083Z,100229.02
2018-07-09T18:35:55.772Z,100226.26
2018-07-09T18:38:25.763Z,100224.44
2018-07-09T18:40:55.685Z,100220.52
2018-07-09T18:43:25.396Z,100224.95
2018-07-09T18:45:55.055Z,100225.17
2018-07-09T18:48:24.796Z,100228.89
2018-07-09T18:50:54.863Z,100226.52
2018-07-09T18:53:24.775Z,100223.09
2018-07-09T18:55:54.504Z,100229.88
2018-07-09T18:58:30.944Z,100226.66
2018-07-09T19:01:00.854Z,100228.45
2018-07-09T19:03:30.521Z,100226.66
2018-07-09T19:06:09.232Z,100226.18
2018-07-09T19:08:39.016Z,100231.02
2018-07-09T19:11:09.129Z,100231.95
2018-07-09T19:13:38.853Z,100239.21
2018-07-09T19:16:08.577Z,100238.77
2018-07-09T19:18:49.300Z,100246.55
2018-07-09T19:21:35.215Z,100236.14
2018-07-09T19:24:04.671Z,100243.23
2018-07-09T19:26:32.995Z,100242.70
2018-07-09T19:29:01.333Z,100248.44
2018-07-09T19:31:29.668Z,100246.05
2018-07-09T19:33:58.736Z,100250.34
2018-07-09T19:36:27.009Z,100242.22
2018-07-09T19:38:55.332Z,100241.08
2018-07-09T19:41:23.620Z,100243.05
2018-07-09T19:43:51.888Z,100240.02
2018-07-09T19:46:20.214Z,100249.22
2018-07-09T19:48:48.495Z,100243.05
2018-07-09T19:51:16.779Z,100243.97
2018-07-09T19:53:45.084Z,100247.22
2018-07-09T19:56:13.358Z,100252.53
2018-07-09T19:58:41.640Z,100247.64
2018-07-09T20:01:10.044Z,100249.70
2018-07-09T20:06:41.246Z,100253.83
2018-07-09T20:12:13.536Z,100250.52
2018-07-09T20:14:46.896Z,100239.64
2018-07-09T20:17:21.293Z,100238.59
2018-07-09T20:19:50.084Z,100238.27
2018-07-09T20:22:18.375Z,100239.64
2018-07-09T20:24:46.689Z,100232.53
2018-07-09T20:27:14.961Z,100235.78
2018-07-09T20:29:43.248Z,100235.89
2018-07-09T20:32:11.573Z,100232.95
2018-07-09T20:34:39.848Z,100231.29
2018-07-09T20:37:08.123Z,100228.08
2018-07-09T20:39:36.460Z,100222.94
2018-07-09T20:42:04.747Z,100219.83
2018-07-09T20:44:33.036Z,100224.49
2018-07-09T20:47:01.355Z,100222.09
2018-07-09T20:49:29.648Z,100219.49
2018-07-09T20:51:57.920Z,100213.86
2018-07-09T20:54:26.232Z,100215.00
2018-07-09T20:56:54.497Z,100219.38
2018-07-09T20:59:22.937Z,100222.38
2018-07-09T21:01:51.266Z,100225.36
2018-07-09T21:04:24.588Z,100226.09
2018-07-09T21:06:53.245Z,100229.30
2018-07-09T21:09:21.528Z,100221.59
2018-07-09T21:11:49.797Z,100217.72
2018-07-09T21:14:18.135Z,100218.45
2018-07-09T21:16:46.420Z,100213.25
2018-07-09T21:19:14.685Z,100223.05
2018-07-09T21:21:43.009Z,100217.81
2018-07-09T21:24:11.280Z,100219.34
2018-07-09T21:26:39.576Z,100223.02
2018-07-09T21:29:07.880Z,100220.29
2018-07-09T21:31:36.159Z,100208.91
2018-07-09T21:34:04.491Z,100208.49
2018-07-09T21:36:32.821Z,100214.99
2018-07-09T21:39:01.107Z,100209.14
2018-07-09T21:41:29.396Z,100208.20
2018-07-09T21:43:57.707Z,100210.28
2018-07-09T21:46:25.972Z,100204.23
2018-07-09T21:48:54.239Z,100207.55
2018-07-09T21:51:22.552Z,100209.70
2018-07-09T21:53:50.824Z,100205.41
2018-07-09T21:56:19.104Z,100202.09
2018-07-09T21:58:47.598Z,100202.17
2018-07-09T22:01:15.894Z,100196.64
2018-07-09T22:03:44.160Z,100206.41
2018-07-09T22:06:12.475Z,100199.47
2018-07-09T22:08:40.787Z,100202.91
2018-07-09T22:11:09.040Z,100200.52
2018-07-09T22:13:37.368Z,100204.02
2018-07-09T22:16:05.639Z,100205.19
2018-07-09T22:18:33.912Z,100201.66
2018-07-09T22:21:02.221Z,100204.54
2018-07-09T22:23:30.480Z,100198.36
2018-07-09T22:25:58.745Z,100196.97
2018-07-09T22:28:27.076Z,100202.87
2018-07-09T22:30:56.829Z,100202.91
2018-07-09T22:33:26.499Z,100182.10
2018-07-09T22:35:56.192Z,100200.38
2018-07-09T22:38:25.877Z,100186.94
2018-07-09T22:40:55.543Z,100191.61
2018-07-09T22:43:36.061Z,100190.38
2018-07-09T22:46:05.740Z,100200.83
2018-07-09T22:48:35.402Z,100195.54
2018-07-09T22:51:05.414Z,100191.69
2018-07-09T22:53:35.028Z,100205.45
2018-07-09T22:56:08.588Z,100194.34
2018-07-09T22:58:39.396Z,100191.31
2018-07-09T23:01:09.175Z,100189.11
2018-07-09T23:03:38.846Z,100196.52
2018-07-09T23:06:08.526Z,100197.09
2018-07-09T23:08:38.275Z,100194.39
2018-07-09T23:11:19.216Z,100190.42
2018-07-09T23:15:00.126Z,100185.22
2018-07-09T23:17:40.809Z,100179.89
2018-07-09T23:20:21.573Z,100175.95
2018-07-09T23:22:49.847Z,100165.42
2018-07-09T23:25:18.128Z,100160.14
2018-07-09T23:27:46.452Z,100168.66
2018-07-09T23:30:14.724Z,100168.08
2018-07-09T23:32:43.005Z,100166.20
2018-07-09T23:35:11.324Z,100159.40
2018-07-09T23:37:39.598Z,100152.80
2018-07-09T23:40:07.885Z,100148.17
2018-07-09T23:42:36.203Z,100131.50
2018-07-09T23:45:04.472Z,100143.14
2018-07-09T23:47:32.762Z,100145.80
2018-07-09T23:50:01.060Z,100142.96
2018-07-09T23:52:29.336Z,100143.73
2018-07-09T23:54:57.607Z,100148.94
2018-07-09T23:58:13.239Z,100145.14
